sensor_id;sensor_type;location;lat;lon;timestamp;P1;durP1;ratioP1;P2;durP2;ratioP2
33206;SDS011;19565;46.602;11.534;2022-08-24T00:01:53;16.83;;;16.02;;
33206;SDS011;19565;46.602;11.534;2022-08-24T00:04:22;17.77;;;16.88;;
33206;SDS011;19565;46.602;11.534;2022-08-24T00:06:51;17.40;;;16.50;;
33206;SDS011;19565;46.602;11.534;2022-08-24T00:09:19;18.02;;;17.13;;
33206;SDS011;19565;46.602;11.534;2022-08-24T00:11:48;17.58;;;16.67;;
33206;SDS011;19565;46.602;11.534;2022-08-24T00:14:16;18.00;;;17.02;;
33206;SDS011;19565;46.602;11.534;2022-08-24T00:16:44;17.15;;;16.35;;
33206;SDS011;19565;46.602;11.534;2022-08-24T00:19:13;17.40;;;16.60;;
33206;SDS011;19565;46.602;11.534;2022-08-24T00:21:41;17.33;;;16.52;;
33206;SDS011;19565;46.602;11.534;2022-08-24T00:24:11;17.73;;;16.85;;
33206;SDS011;19565;46.602;11.534;2022-08-24T00:26:39;17.10;;;16.30;;
33206;SDS011;19565;46.602;11.534;2022-08-24T00:29:08;17.75;;;16.77;;
33206;SDS011;19565;46.602;11.534;2022-08-24T00:31:36;17.00;;;16.20;;
33206;SDS011;19565;46.602;11.534;2022-08-24T00:34:04;17.50;;;16.58;;
33206;SDS011;19565;46.602;11.534;2022-08-24T00:36:33;18.17;;;16.60;;
33206;SDS011;19565;46.602;11.534;2022-08-24T00:39:02;17.33;;;16.52;;
33206;SDS011;19565;46.602;11.534;2022-08-24T00:41:32;17.45;;;16.65;;
33206;SDS011;19565;46.602;11.534;2022-08-24T00:44:02;18.05;;;17.15;;
33206;SDS011;19565;46.602;11.534;2022-08-24T00:46:35;17.48;;;16.58;;
33206;SDS011;19565;46.602;11.534;2022-08-24T00:49:10;17.75;;;16.80;;
33206;SDS011;19565;46.602;11.534;2022-08-24T00:51:47;17.50;;;16.60;;
33206;SDS011;19565;46.602;11.534;2022-08-24T00:54:20;17.80;;;16.90;;
33206;SDS011;19565;46.602;11.534;2022-08-24T00:56:55;17.52;;;16.63;;
33206;SDS011;19565;46.602;11.534;2022-08-24T00:59:33;17.60;;;16.70;;
33206;SDS011;19565;46.602;11.534;2022-08-24T01:02:07;17.90;;;17.00;;
33206;SDS011;19565;46.602;11.534;2022-08-24T01:04:42;16.98;;;16.17;;
33206;SDS011;19565;46.602;11.534;2022-08-24T01:07:15;17.52;;;16.73;;
33206;SDS011;19565;46.602;11.534;2022-08-24T01:09:43;17.15;;;16.35;;
33206;SDS011;19565;46.602;11.534;2022-08-24T01:12:13;17.08;;;16.27;;
33206;SDS011;19565;46.602;11.534;2022-08-24T01:14:42;18.33;;;17.13;;
33206;SDS011;19565;46.602;11.534;2022-08-24T01:17:11;16.90;;;16.02;;
33206;SDS011;19565;46.602;11.534;2022-08-24T01:20:04;17.73;;;16.88;;
33206;SDS011;19565;46.602;11.534;2022-08-24T01:22:43;17.73;;;16.83;;
33206;SDS011;19565;46.602;11.534;2022-08-24T01:25:20;17.05;;;16.25;;
33206;SDS011;19565;46.602;11.534;2022-08-24T01:27:49;17.42;;;16.52;;
33206;SDS011;19565;46.602;11.534;2022-08-24T01:30:20;17.13;;;16.33;;
33206;SDS011;19565;46.602;11.534;2022-08-24T01:33:02;17.23;;;16.42;;
33206;SDS011;19565;46.602;11.534;2022-08-24T01:35:35;18.02;;;17.13;;
33206;SDS011;19565;46.602;11.534;2022-08-24T01:38:05;17.52;;;16.63;;
33206;SDS011;19565;46.602;11.534;2022-08-24T01:40:39;18.00;;;17.05;;
33206;SDS011;19565;46.602;11.534;2022-08-24T01:43:12;17.17;;;16.27;;
33206;SDS011;19565;46.602;11.534;2022-08-24T01:45:40;17.40;;;16.60;;
33206;SDS011;19565;46.602;11.534;2022-08-24T01:48:08;17.83;;;16.80;;
33206;SDS011;19565;46.602;11.534;2022-08-24T01:50:39;18.10;;;17.20;;
33206;SDS011;19565;46.602;11.534;2022-08-24T01:53:07;17.90;;;17.00;;
33206;SDS011;19565;46.602;11.534;2022-08-24T01:55:35;17.73;;;16.83;;
33206;SDS011;19565;46.602;11.534;2022-08-24T01:58:05;18.58;;;17.35;;
33206;SDS011;19565;46.602;11.534;2022-08-24T02:00:34;17.90;;;17.00;;
33206;SDS011;19565;46.602;11.534;2022-08-24T02:03:03;17.90;;;17.05;;
33206;SDS011;19565;46.602;11.534;2022-08-24T02:05:32;17.80;;;16.95;;
33206;SDS011;19565;46.602;11.534;2022-08-24T02:08:01;17.73;;;16.83;;
33206;SDS011;19565;46.602;11.534;2022-08-24T02:10:30;17.17;;;16.38;;
33206;SDS011;19565;46.602;11.534;2022-08-24T02:13:00;18.17;;;16.98;;
33206;SDS011;19565;46.602;11.534;2022-08-24T02:15:32;17.38;;;16.58;;
33206;SDS011;19565;46.602;11.534;2022-08-24T02:18:03;17.98;;;17.08;;
33206;SDS011;19565;46.602;11.534;2022-08-24T02:20:40;17.95;;;17.02;;
33206;SDS011;19565;46.602;11.534;2022-08-24T02:23:08;17.52;;;16.67;;
33206;SDS011;19565;46.602;11.534;2022-08-24T02:25:37;17.95;;;17.05;;
33206;SDS011;19565;46.602;11.534;2022-08-24T02:28:05;17.45;;;16.60;;
33206;SDS011;19565;46.602;11.534;2022-08-24T02:30:34;17.90;;;17.00;;
33206;SDS011;19565;46.602;11.534;2022-08-24T02:33:03;17.48;;;16.67;;
33206;SDS011;19565;46.602;11.534;2022-08-24T02:35:31;17.70;;;16.80;;
33206;SDS011;19565;46.602;11.534;2022-08-24T02:37:59;18.00;;;17.00;;
33206;SDS011;19565;46.602;11.534;2022-08-24T02:40:27;17.88;;;17.00;;
33206;SDS011;19565;46.602;11.534;2022-08-24T02:42:56;17.27;;;16.42;;
33206;SDS011;19565;46.602;11.534;2022-08-24T02:45:24;17.17;;;16.38;;
33206;SDS011;19565;46.602;11.534;2022-08-24T02:47:54;17.13;;;16.33;;
33206;SDS011;19565;46.602;11.534;2022-08-24T02:50:22;17.45;;;16.65;;
33206;SDS011;19565;46.602;11.534;2022-08-24T02:52:51;17.90;;;17.00;;
33206;SDS011;19565;46.602;11.534;2022-08-24T02:55:21;18.45;;;17.48;;
33206;SDS011;19565;46.602;11.534;2022-08-24T02:57:50;17.98;;;17.08;;
33206;SDS011;19565;46.602;11.534;2022-08-24T03:00:19;17.48;;;16.67;;
33206;SDS011;19565;46.602;11.534;2022-08-24T03:02:48;17.75;;;16.85;;
33206;SDS011;19565;46.602;11.534;2022-08-24T03:05:18;17.60;;;16.80;;
33206;SDS011;19565;46.602;11.534;2022-08-24T03:07:47;18.15;;;17.10;;
33206;SDS011;19565;46.602;11.534;2022-08-24T03:10:17;17.85;;;16.95;;
33206;SDS011;19565;46.602;11.534;2022-08-24T03:12:46;17.85;;;16.95;;
33206;SDS011;19565;46.602;11.534;2022-08-24T03:15:15;18.85;;;17.65;;
33206;SDS011;19565;46.602;11.534;2022-08-24T03:17:47;18.38;;;17.38;;
33206;SDS011;19565;46.602;11.534;2022-08-24T03:20:18;18.00;;;17.10;;
33206;SDS011;19565;46.602;11.534;2022-08-24T03:22:50;17.38;;;16.48;;
33206;SDS011;19565;46.602;11.534;2022-08-24T03:25:19;17.42;;;16.52;;
33206;SDS011;19565;46.602;11.534;2022-08-24T03:27:50;17.17;;;16.38;;
33206;SDS011;19565;46.602;11.534;2022-08-24T03:30:20;18.15;;;17.05;;
33206;SDS011;19565;46.602;11.534;2022-08-24T03:32:49;18.20;;;16.90;;
33206;SDS011;19565;46.602;11.534;2022-08-24T03:35:21;17.58;;;16.67;;
33206;SDS011;19565;46.602;11.534;2022-08-24T03:37:49;17.55;;;16.73;;
33206;SDS011;19565;46.602;11.534;2022-08-24T03:40:17;18.00;;;16.95;;
33206;SDS011;19565;46.602;11.534;2022-08-24T03:42:50;17.75;;;16.75;;
33206;SDS011;19565;46.602;11.534;2022-08-24T03:45:19;17.50;;;16.60;;
33206;SDS011;19565;46.602;11.534;2022-08-24T03:47:48;18.27;;;17.17;;
33206;SDS011;19565;46.602;11.534;2022-08-24T03:50:17;18.38;;;17.48;;
33206;SDS011;19565;46.602;11.534;2022-08-24T03:52:48;18.75;;;17.75;;
33206;SDS011;19565;46.602;11.534;2022-08-24T03:55:17;17.83;;;16.92;;
33206;SDS011;19565;46.602;11.534;2022-08-24T03:57:46;17.67;;;16.77;;
33206;SDS011;19565;46.602;11.534;2022-08-24T04:00:14;17.63;;;16.70;;
33206;SDS011;19565;46.602;11.534;2022-08-24T04:02:43;17.95;;;17.05;;
33206;SDS011;19565;46.602;11.534;2022-08-24T04:05:11;17.05;;;16.25;;
33206;SDS011;19565;46.602;11.534;2022-08-24T04:07:39;17.70;;;16.80;;
33206;SDS011;19565;46.602;11.534;2022-08-24T04:10:09;18.88;;;17.92;;
33206;SDS011;19565;46.602;11.534;2022-08-24T04:12:40;18.63;;;17.73;;
33206;SDS011;19565;46.602;11.534;2022-08-24T04:15:09;19.02;;;18.13;;
33206;SDS011;19565;46.602;11.534;2022-08-24T04:17:38;18.33;;;17.35;;
33206;SDS011;19565;46.602;11.534;2022-08-24T04:20:07;18.65;;;17.65;;
33206;SDS011;19565;46.602;11.534;2022-08-24T04:22:36;19.02;;;18.02;;
33206;SDS011;19565;46.602;11.534;2022-08-24T04:25:05;18.85;;;17.95;;
33206;SDS011;19565;46.602;11.534;2022-08-24T04:27:36;18.88;;;17.98;;
33206;SDS011;19565;46.602;11.534;2022-08-24T04:30:06;19.35;;;18.35;;
33206;SDS011;19565;46.602;11.534;2022-08-24T04:32:39;18.98;;;17.80;;
33206;SDS011;19565;46.602;11.534;2022-08-24T04:35:08;18.20;;;17.25;;
33206;SDS011;19565;46.602;11.534;2022-08-24T04:37:36;20.30;;;18.33;;
33206;SDS011;19565;46.602;11.534;2022-08-24T04:40:04;19.10;;;18.20;;
33206;SDS011;19565;46.602;11.534;2022-08-24T04:42:34;18.27;;;17.38;;
33206;SDS011;19565;46.602;11.534;2022-08-24T04:45:04;18.52;;;17.63;;
33206;SDS011;19565;46.602;11.534;2022-08-24T04:47:33;17.60;;;16.70;;
33206;SDS011;19565;46.602;11.534;2022-08-24T04:50:01;17.17;;;16.30;;
33206;SDS011;19565;46.602;11.534;2022-08-24T04:52:29;16.88;;;16.08;;
33206;SDS011;19565;46.602;11.534;2022-08-24T04:54:57;18.13;;;17.17;;
33206;SDS011;19565;46.602;11.534;2022-08-24T04:57:25;18.95;;;17.90;;
33206;SDS011;19565;46.602;11.534;2022-08-24T04:59:55;17.13;;;16.27;;
33206;SDS011;19565;46.602;11.534;2022-08-24T05:02:27;17.70;;;16.80;;
33206;SDS011;19565;46.602;11.534;2022-08-24T05:04:58;17.85;;;16.95;;
33206;SDS011;19565;46.602;11.534;2022-08-24T05:07:26;18.25;;;17.25;;
33206;SDS011;19565;46.602;11.534;2022-08-24T05:09:55;17.90;;;17.00;;
33206;SDS011;19565;46.602;11.534;2022-08-24T05:12:24;17.45;;;16.17;;
33206;SDS011;19565;46.602;11.534;2022-08-24T05:14:52;21.15;;;20.05;;
33206;SDS011;19565;46.602;11.534;2022-08-24T05:17:20;19.60;;;18.60;;
33206;SDS011;19565;46.602;11.534;2022-08-24T05:19:50;18.38;;;16.95;;
33206;SDS011;19565;46.602;11.534;2022-08-24T05:22:18;26.10;;;25.00;;
33206;SDS011;19565;46.602;11.534;2022-08-24T05:24:46;26.23;;;25.05;;
33206;SDS011;19565;46.602;11.534;2022-08-24T05:27:15;25.40;;;24.20;;
33206;SDS011;19565;46.602;11.534;2022-08-24T05:29:44;25.88;;;24.65;;
33206;SDS011;19565;46.602;11.534;2022-08-24T05:32:12;22.05;;;21.05;;
33206;SDS011;19565;46.602;11.534;2022-08-24T05:34:42;26.70;;;25.45;;
33206;SDS011;19565;46.602;11.534;2022-08-24T05:37:12;24.55;;;23.42;;
33206;SDS011;19565;46.602;11.534;2022-08-24T05:39:40;24.48;;;23.27;;
33206;SDS011;19565;46.602;11.534;2022-08-24T05:42:08;24.33;;;23.23;;
33206;SDS011;19565;46.602;11.534;2022-08-24T05:44:36;26.25;;;25.05;;
33206;SDS011;19565;46.602;11.534;2022-08-24T05:47:04;23.38;;;22.27;;
33206;SDS011;19565;46.602;11.534;2022-08-24T05:49:32;23.20;;;22.10;;
33206;SDS011;19565;46.602;11.534;2022-08-24T05:52:06;24.00;;;22.90;;
33206;SDS011;19565;46.602;11.534;2022-08-24T05:54:36;22.33;;;21.23;;
33206;SDS011;19565;46.602;11.534;2022-08-24T05:57:04;23.63;;;22.52;;
33206;SDS011;19565;46.602;11.534;2022-08-24T05:59:32;22.83;;;21.73;;
33206;SDS011;19565;46.602;11.534;2022-08-24T06:02:00;24.83;;;23.50;;
33206;SDS011;19565;46.602;11.534;2022-08-24T06:04:29;25.73;;;24.45;;
33206;SDS011;19565;46.602;11.534;2022-08-24T06:06:57;24.58;;;23.48;;
33206;SDS011;19565;46.602;11.534;2022-08-24T06:09:26;23.50;;;22.40;;
33206;SDS011;19565;46.602;11.534;2022-08-24T06:11:55;25.30;;;24.10;;
33206;SDS011;19565;46.602;11.534;2022-08-24T06:14:24;22.83;;;21.70;;
33206;SDS011;19565;46.602;11.534;2022-08-24T06:16:53;23.63;;;22.40;;
33206;SDS011;19565;46.602;11.534;2022-08-24T06:19:21;23.90;;;22.80;;
33206;SDS011;19565;46.602;11.534;2022-08-24T06:21:52;21.83;;;20.83;;
33206;SDS011;19565;46.602;11.534;2022-08-24T06:24:21;25.25;;;23.75;;
33206;SDS011;19565;46.602;11.534;2022-08-24T06:27:12;23.70;;;22.60;;
33206;SDS011;19565;46.602;11.534;2022-08-24T06:29:47;23.10;;;21.92;;
33206;SDS011;19565;46.602;11.534;2022-08-24T06:32:16;23.67;;;22.58;;
33206;SDS011;19565;46.602;11.534;2022-08-24T06:34:44;21.73;;;20.73;;
33206;SDS011;19565;46.602;11.534;2022-08-24T06:37:13;22.10;;;20.90;;
33206;SDS011;19565;46.602;11.534;2022-08-24T06:39:41;23.50;;;22.40;;
33206;SDS011;19565;46.602;11.534;2022-08-24T06:42:09;23.48;;;22.27;;
33206;SDS011;19565;46.602;11.534;2022-08-24T06:44:40;22.35;;;21.35;;
33206;SDS011;19565;46.602;11.534;2022-08-24T06:47:08;21.48;;;20.45;;
33206;SDS011;19565;46.602;11.534;2022-08-24T06:49:37;21.92;;;20.83;;
33206;SDS011;19565;46.602;11.534;2022-08-24T06:52:05;22.48;;;21.48;;
33206;SDS011;19565;46.602;11.534;2022-08-24T06:54:35;25.85;;;24.65;;
33206;SDS011;19565;46.602;11.534;2022-08-24T06:57:03;24.40;;;23.30;;
33206;SDS011;19565;46.602;11.534;2022-08-24T06:59:33;26.67;;;25.48;;
33206;SDS011;19565;46.602;11.534;2022-08-24T07:02:01;46.40;;;44.50;;
33206;SDS011;19565;46.602;11.534;2022-08-24T07:04:31;48.42;;;46.42;;
33206;SDS011;19565;46.602;11.534;2022-08-24T07:06:59;51.50;;;49.40;;
33206;SDS011;19565;46.602;11.534;2022-08-24T07:09:29;53.25;;;51.05;;
33206;SDS011;19565;46.602;11.534;2022-08-24T07:11:58;59.50;;;57.05;;
33206;SDS011;19565;46.602;11.534;2022-08-24T07:14:27;55.40;;;53.10;;
33206;SDS011;19565;46.602;11.534;2022-08-24T07:16:56;53.47;;;51.28;;
33206;SDS011;19565;46.602;11.534;2022-08-24T07:19:24;54.72;;;52.42;;
33206;SDS011;19565;46.602;11.534;2022-08-24T07:21:54;55.42;;;53.13;;
33206;SDS011;19565;46.602;11.534;2022-08-24T07:24:23;66.82;;;64.07;;
33206;SDS011;19565;46.602;11.534;2022-08-24T07:26:52;58.72;;;56.22;;
33206;SDS011;19565;46.602;11.534;2022-08-24T07:29:20;66.07;;;63.28;;
33206;SDS011;19565;46.602;11.534;2022-08-24T07:32:09;58.38;;;55.88;;
33206;SDS011;19565;46.602;11.534;2022-08-24T07:34:37;64.43;;;61.72;;
33206;SDS011;19565;46.602;11.534;2022-08-24T07:37:05;67.63;;;64.72;;
33206;SDS011;19565;46.602;11.534;2022-08-24T07:39:34;59.83;;;57.33;;
33206;SDS011;19565;46.602;11.534;2022-08-24T07:42:02;62.03;;;59.42;;
33206;SDS011;19565;46.602;11.534;2022-08-24T07:44:46;71.13;;;68.20;;
33206;SDS011;19565;46.602;11.534;2022-08-24T07:47:15;61.90;;;59.30;;
33206;SDS011;19565;46.602;11.534;2022-08-24T07:50:04;65.30;;;62.60;;
33206;SDS011;19565;46.602;11.534;2022-08-24T07:52:32;67.10;;;64.32;;
33206;SDS011;19565;46.602;11.534;2022-08-24T07:55:01;65.13;;;62.42;;
33206;SDS011;19565;46.602;11.534;2022-08-24T07:57:29;61.05;;;58.45;;
33206;SDS011;19565;46.602;11.534;2022-08-24T07:59:57;62.10;;;59.50;;
33206;SDS011;19565;46.602;11.534;2022-08-24T08:02:31;60.83;;;58.33;;
33206;SDS011;19565;46.602;11.534;2022-08-24T08:05:01;64.40;;;61.70;;
33206;SDS011;19565;46.602;11.534;2022-08-24T08:07:30;66.72;;;63.95;;
33206;SDS011;19565;46.602;11.534;2022-08-24T08:09:59;66.72;;;64.03;;
33206;SDS011;19565;46.602;11.534;2022-08-24T08:12:28;66.10;;;63.38;;
33206;SDS011;19565;46.602;11.534;2022-08-24T08:14:56;66.63;;;63.92;;
33206;SDS011;19565;46.602;11.534;2022-08-24T08:17:24;65.78;;;63.05;;
33206;SDS011;19565;46.602;11.534;2022-08-24T08:19:54;71.93;;;68.93;;
33206;SDS011;19565;46.602;11.534;2022-08-24T08:22:22;70.20;;;67.20;;
33206;SDS011;19565;46.602;11.534;2022-08-24T08:25:10;72.95;;;69.95;;
33206;SDS011;19565;46.602;11.534;2022-08-24T08:27:39;70.53;;;67.63;;
33206;SDS011;19565;46.602;11.534;2022-08-24T08:30:12;71.72;;;68.75;;
33206;SDS011;19565;46.602;11.534;2022-08-24T08:32:41;73.68;;;70.63;;
33206;SDS011;19565;46.602;11.534;2022-08-24T08:35:10;65.00;;;62.30;;
33206;SDS011;19565;46.602;11.534;2022-08-24T08:37:38;63.70;;;61.00;;
33206;SDS011;19565;46.602;11.534;2022-08-24T08:40:08;64.47;;;61.67;;
33206;SDS011;19565;46.602;11.534;2022-08-24T08:43:02;64.20;;;61.50;;
33206;SDS011;19565;46.602;11.534;2022-08-24T08:45:34;67.65;;;64.85;;
33206;SDS011;19565;46.602;11.534;2022-08-24T08:48:39;64.95;;;62.15;;
33206;SDS011;19565;46.602;11.534;2022-08-24T08:54:34;73.72;;;70.72;;
33206;SDS011;19565;46.602;11.534;2022-08-24T08:57:20;72.57;;;69.57;;
33206;SDS011;19565;46.602;11.534;2022-08-24T09:00:12;75.13;;;72.03;;
33206;SDS011;19565;46.602;11.534;2022-08-24T09:06:01;73.78;;;70.78;;
33206;SDS011;19565;46.602;11.534;2022-08-24T09:08:51;68.22;;;65.43;;
33206;SDS011;19565;46.602;11.534;2022-08-24T09:11:38;66.82;;;63.92;;
33206;SDS011;19565;46.602;11.534;2022-08-24T09:14:26;65.10;;;62.40;;
33206;SDS011;19565;46.602;11.534;2022-08-24T09:17:22;64.97;;;62.28;;
33206;SDS011;19565;46.602;11.534;2022-08-24T09:20:08;69.80;;;66.90;;
33206;SDS011;19565;46.602;11.534;2022-08-24T09:22:46;70.13;;;67.18;;
33206;SDS011;19565;46.602;11.534;2022-08-24T09:25:31;69.80;;;66.80;;
33206;SDS011;19565;46.602;11.534;2022-08-24T09:28:14;69.97;;;67.07;;
33206;SDS011;19565;46.602;11.534;2022-08-24T09:31:02;68.68;;;65.78;;
33206;SDS011;19565;46.602;11.534;2022-08-24T09:33:44;68.70;;;65.80;;
33206;SDS011;19565;46.602;11.534;2022-08-24T09:36:25;73.28;;;70.22;;
33206;SDS011;19565;46.602;11.534;2022-08-24T09:39:04;67.25;;;64.45;;
33206;SDS011;19565;46.602;11.534;2022-08-24T09:41:44;71.40;;;68.32;;
33206;SDS011;19565;46.602;11.534;2022-08-24T09:44:42;69.72;;;66.82;;
33206;SDS011;19565;46.602;11.534;2022-08-24T09:47:36;73.03;;;70.03;;
33206;SDS011;19565;46.602;11.534;2022-08-24T09:50:38;73.40;;;70.30;;
33206;SDS011;19565;46.602;11.534;2022-08-24T09:53:39;75.05;;;71.95;;
33206;SDS011;19565;46.602;11.534;2022-08-24T09:56:47;81.43;;;78.13;;
33206;SDS011;19565;46.602;11.534;2022-08-24T10:02:39;66.97;;;64.18;;
33206;SDS011;19565;46.602;11.534;2022-08-24T10:05:21;65.90;;;63.10;;
33206;SDS011;19565;46.602;11.534;2022-08-24T10:08:03;67.18;;;64.38;;
33206;SDS011;19565;46.602;11.534;2022-08-24T10:10:44;67.75;;;64.85;;
33206;SDS011;19565;46.602;11.534;2022-08-24T10:13:26;68.35;;;65.45;;
33206;SDS011;19565;46.602;11.534;2022-08-24T10:16:14;67.95;;;65.07;;
33206;SDS011;19565;46.602;11.534;2022-08-24T10:18:54;72.93;;;69.82;;
33206;SDS011;19565;46.602;11.534;2022-08-24T10:21:32;72.43;;;69.38;;
33206;SDS011;19565;46.602;11.534;2022-08-24T10:24:11;72.15;;;69.15;;
33206;SDS011;19565;46.602;11.534;2022-08-24T10:27:02;68.35;;;65.45;;
33206;SDS011;19565;46.602;11.534;2022-08-24T10:29:59;68.93;;;65.47;;
33206;SDS011;19565;46.602;11.534;2022-08-24T10:32:54;66.07;;;63.20;;
33206;SDS011;19565;46.602;11.534;2022-08-24T10:35:31;65.05;;;62.35;;
33206;SDS011;19565;46.602;11.534;2022-08-24T10:38:06;66.15;;;63.28;;
33206;SDS011;19565;46.602;11.534;2022-08-24T10:41:20;66.72;;;63.92;;
33206;SDS011;19565;46.602;11.534;2022-08-24T10:44:16;67.00;;;64.20;;
33206;SDS011;19565;46.602;11.534;2022-08-24T10:47:10;67.00;;;64.10;;
33206;SDS011;19565;46.602;11.534;2022-08-24T10:53:08;71.07;;;68.07;;
33206;SDS011;19565;46.602;11.534;2022-08-24T10:56:04;73.88;;;70.82;;
33206;SDS011;19565;46.602;11.534;2022-08-24T10:58:49;79.03;;;75.72;;
33206;SDS011;19565;46.602;11.534;2022-08-24T11:01:23;79.20;;;76.00;;
33206;SDS011;19565;46.602;11.534;2022-08-24T11:03:56;74.20;;;71.10;;
33206;SDS011;19565;46.602;11.534;2022-08-24T11:06:28;75.28;;;72.18;;
33206;SDS011;19565;46.602;11.534;2022-08-24T11:09:02;74.20;;;70.55;;
33206;SDS011;19565;46.602;11.534;2022-08-24T11:11:35;73.32;;;70.32;;
33206;SDS011;19565;46.602;11.534;2022-08-24T11:14:06;68.38;;;65.57;;
33206;SDS011;19565;46.602;11.534;2022-08-24T11:16:37;72.28;;;69.28;;
33206;SDS011;19565;46.602;11.534;2022-08-24T11:19:08;72.03;;;69.03;;
33206;SDS011;19565;46.602;11.534;2022-08-24T11:24:30;64.38;;;61.67;;
33206;SDS011;19565;46.602;11.534;2022-08-24T11:27:16;73.40;;;70.40;;
33206;SDS011;19565;46.602;11.534;2022-08-24T11:29:55;65.10;;;62.40;;
33206;SDS011;19565;46.602;11.534;2022-08-24T11:32:29;66.72;;;63.92;;
33206;SDS011;19565;46.602;11.534;2022-08-24T11:35:05;67.63;;;64.82;;
33206;SDS011;19565;46.602;11.534;2022-08-24T11:37:37;78.20;;;75.10;;
33206;SDS011;19565;46.602;11.534;2022-08-24T11:40:07;67.47;;;64.68;;
33206;SDS011;19565;46.602;11.534;2022-08-24T11:42:41;67.85;;;65.05;;
33206;SDS011;19565;46.602;11.534;2022-08-24T11:45:19;66.63;;;63.83;;
33206;SDS011;19565;46.602;11.534;2022-08-24T11:47:59;68.78;;;65.88;;
33206;SDS011;19565;46.602;11.534;2022-08-24T11:50:38;66.03;;;63.33;;
33206;SDS011;19565;46.602;11.534;2022-08-24T11:53:13;67.32;;;64.53;;
33206;SDS011;19565;46.602;11.534;2022-08-24T11:55:53;65.65;;;62.95;;
33206;SDS011;19565;46.602;11.534;2022-08-24T11:58:44;60.60;;;58.10;;
33206;SDS011;19565;46.602;11.534;2022-08-24T12:01:19;76.95;;;73.68;;
33206;SDS011;19565;46.602;11.534;2022-08-24T12:04:00;74.38;;;71.28;;
33206;SDS011;19565;46.602;11.534;2022-08-24T12:06:42;73.88;;;70.88;;
33206;SDS011;19565;46.602;11.534;2022-08-24T12:09:24;75.50;;;72.40;;
33206;SDS011;19565;46.602;11.534;2022-08-24T12:12:06;73.82;;;70.75;;
33206;SDS011;19565;46.602;11.534;2022-08-24T12:14:46;76.38;;;73.28;;
33206;SDS011;19565;46.602;11.534;2022-08-24T12:17:23;75.63;;;72.45;;
33206;SDS011;19565;46.602;11.534;2022-08-24T12:19:59;74.53;;;71.43;;
33206;SDS011;19565;46.602;11.534;2022-08-24T12:22:30;70.93;;;68.03;;
33206;SDS011;19565;46.602;11.534;2022-08-24T12:24:59;75.95;;;72.85;;
33206;SDS011;19565;46.602;11.534;2022-08-24T12:27:52;76.70;;;73.57;;
33206;SDS011;19565;46.602;11.534;2022-08-24T12:30:23;75.40;;;72.30;;
33206;SDS011;19565;46.602;11.534;2022-08-24T12:32:54;75.30;;;72.20;;
33206;SDS011;19565;46.602;11.534;2022-08-24T12:35:26;71.55;;;68.55;;
33206;SDS011;19565;46.602;11.534;2022-08-24T12:38:00;71.30;;;68.30;;
33206;SDS011;19565;46.602;11.534;2022-08-24T12:40:35;70.90;;;67.90;;
33206;SDS011;19565;46.602;11.534;2022-08-24T12:43:10;67.75;;;64.85;;
33206;SDS011;19565;46.602;11.534;2022-08-24T12:45:41;69.85;;;66.95;;
33206;SDS011;19565;46.602;11.534;2022-08-24T12:48:12;69.97;;;67.07;;
33206;SDS011;19565;46.602;11.534;2022-08-24T12:50:56;69.38;;;66.47;;
33206;SDS011;19565;46.602;11.534;2022-08-24T12:53:41;75.22;;;72.13;;
33206;SDS011;19565;46.602;11.534;2022-08-24T12:59:18;70.18;;;67.28;;
33206;SDS011;19565;46.602;11.534;2022-08-24T13:01:57;70.43;;;67.53;;
33206;SDS011;19565;46.602;11.534;2022-08-24T13:04:30;70.03;;;67.13;;
33206;SDS011;19565;46.602;11.534;2022-08-24T13:07:05;72.93;;;69.93;;
33206;SDS011;19565;46.602;11.534;2022-08-24T13:09:36;71.47;;;68.50;;
33206;SDS011;19565;46.602;11.534;2022-08-24T13:15:26;69.95;;;67.05;;
33206;SDS011;19565;46.602;11.534;2022-08-24T13:21:39;73.85;;;70.75;;
33206;SDS011;19565;46.602;11.534;2022-08-24T13:30:37;76.38;;;73.25;;
33206;SDS011;19565;46.602;11.534;2022-08-24T13:33:27;70.55;;;67.65;;
33206;SDS011;19565;46.602;11.534;2022-08-24T13:36:04;68.63;;;65.78;;
33206;SDS011;19565;46.602;11.534;2022-08-24T13:38:57;67.50;;;64.70;;
33206;SDS011;19565;46.602;11.534;2022-08-24T13:41:36;70.57;;;67.32;;
33206;SDS011;19565;46.602;11.534;2022-08-24T13:44:33;71.55;;;68.65;;
33206;SDS011;19565;46.602;11.534;2022-08-24T13:47:17;70.85;;;67.95;;
33206;SDS011;19565;46.602;11.534;2022-08-24T13:49:56;68.07;;;65.28;;
33206;SDS011;19565;46.602;11.534;2022-08-24T13:52:38;76.63;;;73.43;;
33206;SDS011;19565;46.602;11.534;2022-08-24T13:55:27;69.35;;;66.50;;
33206;SDS011;19565;46.602;11.534;2022-08-24T13:58:05;67.78;;;64.97;;
33206;SDS011;19565;46.602;11.534;2022-08-24T14:00:46;62.45;;;59.85;;
33206;SDS011;19565;46.602;11.534;2022-08-24T14:03:23;61.85;;;59.25;;
33206;SDS011;19565;46.602;11.534;2022-08-24T14:06:04;77.55;;;74.45;;
33206;SDS011;19565;46.602;11.534;2022-08-24T14:08:52;74.55;;;71.55;;
33206;SDS011;19565;46.602;11.534;2022-08-24T14:11:34;77.88;;;74.65;;
33206;SDS011;19565;46.602;11.534;2022-08-24T14:14:24;70.85;;;67.88;;
33206;SDS011;19565;46.602;11.534;2022-08-24T14:17:10;72.65;;;69.57;;
33206;SDS011;19565;46.602;11.534;2022-08-24T14:20:04;65.45;;;62.75;;
33206;SDS011;19565;46.602;11.534;2022-08-24T14:22:39;67.30;;;64.55;;
33206;SDS011;19565;46.602;11.534;2022-08-24T14:25:20;65.65;;;62.95;;
33206;SDS011;19565;46.602;11.534;2022-08-24T14:28:20;67.35;;;64.55;;
33206;SDS011;19565;46.602;11.534;2022-08-24T14:31:11;67.70;;;64.90;;
33206;SDS011;19565;46.602;11.534;2022-08-24T14:33:44;68.68;;;65.88;;
33206;SDS011;19565;46.602;11.534;2022-08-24T14:36:23;65.43;;;62.63;;
33206;SDS011;19565;46.602;11.534;2022-08-24T14:39:09;66.07;;;63.38;;
33206;SDS011;19565;46.602;11.534;2022-08-24T14:41:49;63.22;;;60.60;;
33206;SDS011;19565;46.602;11.534;2022-08-24T14:44:24;65.65;;;62.92;;
33206;SDS011;19565;46.602;11.534;2022-08-24T14:47:11;68.00;;;65.20;;
33206;SDS011;19565;46.602;11.534;2022-08-24T14:49:48;65.70;;;62.95;;
33206;SDS011;19565;46.602;11.534;2022-08-24T14:52:47;67.50;;;64.70;;
33206;SDS011;19565;46.602;11.534;2022-08-24T14:55:26;65.50;;;62.78;;
33206;SDS011;19565;46.602;11.534;2022-08-24T14:58:03;65.50;;;62.80;;
33206;SDS011;19565;46.602;11.534;2022-08-24T15:00:47;66.38;;;63.60;;
33206;SDS011;19565;46.602;11.534;2022-08-24T15:06:23;65.95;;;63.15;;
33206;SDS011;19565;46.602;11.534;2022-08-24T15:09:07;67.25;;;64.45;;
33206;SDS011;19565;46.602;11.534;2022-08-24T15:11:39;75.85;;;71.28;;
33206;SDS011;19565;46.602;11.534;2022-08-24T15:14:10;73.03;;;70.03;;
33206;SDS011;19565;46.602;11.534;2022-08-24T15:16:48;68.97;;;65.97;;
33206;SDS011;19565;46.602;11.534;2022-08-24T15:19:21;69.53;;;66.63;;
33206;SDS011;19565;46.602;11.534;2022-08-24T15:21:58;64.85;;;62.15;;
33206;SDS011;19565;46.602;11.534;2022-08-24T15:24:33;64.32;;;61.63;;
33206;SDS011;19565;46.602;11.534;2022-08-24T15:27:14;64.50;;;61.80;;